Terminal Aerodrome Forecast
Issued by NWS Portland, OR

Home | Current Version | Previous Version | Text Only | Print | Product List | Glossary On
Versions: 1 2 3 4 5 6 7 8 9 10 11 12 13 14 15 16 17 18 19 20 21 22 23 24 25 26 27 28 29 30 31 32 33 34 35 36 37 38 39 40 41 42 43 44 45 46 47 48
000
FTUS46 KPQR 051139
TAFTTD
TAF
KTTD 051139Z 0512/0612 00000KT P6SM SCT050 BKN070
     FM051400 VRB03KT 6SM BR FEW010 SCT050 BKN070
     FM051700 25005KT P6SM FEW025 SCT030
     FM060600 21004KT P6SM BKN120=

USA.gov is the U.S. government's official web portal to all federal, state and local government web resources and services.